Time;durP1;ratioP1;P1;durP2;ratioP2;P2;SDS_P1;SDS_P2;PMS_P1;PMS_P2;Temp;Humidity;BMP_temperature;BMP_pressure;BME280_temperature;BME280_humidity;BME280_pressure;Samples;Min_cycle;Max_cycle;Signal;HPM_P1;HPM_P2
2024/02/03 00:00:51;;;;;;;73.75;52.38;;;;;;;;;;5049822;28;20515;-70
2024/02/03 00:03:17;;;;;;;84.00;55.03;;;;;;;;;;5050183;28;20380;-71
2024/02/03 00:05:44;;;;;;;74.35;51.45;;;;;;;;;;5049375;28;20036;-71
2024/02/03 00:08:10;;;;;;;79.10;53.58;;;;;;;;;;5049690;28;20036;-71
2024/02/03 00:10:36;;;;;;;80.57;53.90;;;;;;;;;;5048645;28;20411;-71
2024/02/03 00:13:02;;;;;;;77.80;54.42;;;;;;;;;;5052089;28;20032;-71
2024/02/03 00:15:28;;;;;;;77.35;54.42;;;;;;;;;;5050703;28;20033;-72
2024/02/03 00:17:54;;;;;;;74.88;52.38;;;;;;;;;;5052425;28;20017;-71
2024/02/03 00:20:21;;;;;;;72.78;52.10;;;;;;;;;;5044996;28;20048;-71
2024/02/03 00:22:51;;;;;;;72.13;51.97;;;;;;;;;;5042376;28;20156;-71
2024/02/03 00:25:20;;;;;;;74.85;52.33;;;;;;;;;;5051796;28;20032;-72
2024/02/03 00:27:46;;;;;;;75.63;51.63;;;;;;;;;;5053859;28;20416;-71
2024/02/03 00:30:12;;;;;;;74.30;53.17;;;;;;;;;;5052598;28;20467;-71
2024/02/03 00:32:43;;;;;;;80.28;54.58;;;;;;;;;;5045387;28;20459;-72
2024/02/03 00:35:09;;;;;;;81.32;54.47;;;;;;;;;;5034465;28;20505;-71
2024/02/03 00:37:35;;;;;;;78.80;56.33;;;;;;;;;;5053806;28;20025;-71
2024/02/03 00:40:03;;;;;;;75.57;51.33;;;;;;;;;;5053501;28;20098;-72
2024/02/03 00:42:29;;;;;;;74.53;52.97;;;;;;;;;;5053411;28;20031;-72
2024/02/03 00:44:55;;;;;;;76.72;53.20;;;;;;;;;;5053300;28;20025;-72
2024/02/03 00:47:21;;;;;;;76.47;52.05;;;;;;;;;;5050764;28;20138;-72
2024/02/03 00:49:47;;;;;;;73.45;53.60;;;;;;;;;;5031935;28;20083;-72
2024/02/03 00:52:13;;;;;;;84.65;55.25;;;;;;;;;;5037022;28;20033;-71
2024/02/03 00:54:39;;;;;;;82.60;54.55;;;;;;;;;;5053295;28;20426;-72
2024/02/03 00:57:07;;;;;;;73.43;52.60;;;;;;;;;;5051697;28;20025;-72
2024/02/03 00:59:33;;;;;;;78.50;53.30;;;;;;;;;;5038573;28;20029;-72
2024/02/03 01:01:59;;;;;;;79.05;54.78;;;;;;;;;;5051519;28;20025;-71
2024/02/03 01:04:25;;;;;;;75.07;53.58;;;;;;;;;;5051546;28;20036;-72
2024/02/03 01:06:55;;;;;;;77.28;51.38;;;;;;;;;;5051617;28;20017;-72
2024/02/03 01:09:21;;;;;;;72.43;52.00;;;;;;;;;;5052410;28;20017;-71
2024/02/03 01:11:47;;;;;;;80.15;56.20;;;;;;;;;;5051343;28;20126;-72
2024/02/03 01:14:13;;;;;;;76.38;55.88;;;;;;;;;;5052614;28;20024;-72
2024/02/03 01:16:39;;;;;;;80.97;54.00;;;;;;;;;;5051742;28;20021;-72
2024/02/03 01:19:05;;;;;;;80.25;53.55;;;;;;;;;;5044775;28;20040;-72
2024/02/03 01:21:31;;;;;;;79.03;52.13;;;;;;;;;;5048095;28;20060;-71
2024/02/03 01:23:57;;;;;;;76.10;52.40;;;;;;;;;;5032759;28;20037;-72
2024/02/03 01:26:23;;;;;;;71.68;49.25;;;;;;;;;;5032667;28;20036;-72
2024/02/03 01:28:50;;;;;;;72.40;50.65;;;;;;;;;;5039997;28;20111;-72
2024/02/03 01:31:15;;;;;;;79.03;53.00;;;;;;;;;;5052337;28;20048;-71
2024/02/03 01:33:41;;;;;;;78.32;51.97;;;;;;;;;;5052319;28;20020;-71
2024/02/03 01:36:08;;;;;;;77.40;54.28;;;;;;;;;;5052324;28;20033;-72
2024/02/03 01:38:34;;;;;;;77.00;54.08;;;;;;;;;;5052225;28;20454;-72
2024/02/03 01:41:00;;;;;;;73.28;54.30;;;;;;;;;;5052596;28;20025;-73
2024/02/03 01:43:27;;;;;;;80.15;55.50;;;;;;;;;;5050583;28;20068;-73
2024/02/03 01:45:52;;;;;;;80.88;53.72;;;;;;;;;;5047569;28;20036;-73
2024/02/03 01:48:19;;;;;;;81.95;54.97;;;;;;;;;;5045932;28;20028;-73
2024/02/03 01:50:48;;;;;;;81.22;57.28;;;;;;;;;;5052103;28;20021;-73
2024/02/03 01:53:15;;;;;;;78.72;56.97;;;;;;;;;;5052059;28;20013;-73
2024/02/03 01:55:41;;;;;;;82.05;54.42;;;;;;;;;;5050752;28;20031;-72
2024/02/03 01:58:07;;;;;;;78.53;54.95;;;;;;;;;;5049115;28;20029;-73
2024/02/03 02:00:33;;;;;;;81.13;57.47;;;;;;;;;;5047553;28;20056;-73
2024/02/03 02:03:14;;;;;;;79.03;57.25;;;;;;;;;;5051685;28;20048;-72
2024/02/03 02:05:40;;;;;;;82.07;56.97;;;;;;;;;;5038485;28;20037;-72
2024/02/03 02:08:06;;;;;;;84.35;59.70;;;;;;;;;;5047603;28;20112;-73
2024/02/03 02:10:32;;;;;;;86.35;58.80;;;;;;;;;;5049300;28;20501;-72
2024/02/03 02:12:58;;;;;;;81.70;60.85;;;;;;;;;;5049323;28;20061;-72
2024/02/03 02:15:24;;;;;;;84.03;59.50;;;;;;;;;;5049480;28;20025;-72
2024/02/03 02:17:56;;;;;;;88.90;60.35;;;;;;;;;;5050018;28;20099;-72
2024/02/03 02:20:22;;;;;;;82.78;56.83;;;;;;;;;;5050839;28;20458;-72
2024/02/03 02:22:48;;;;;;;80.60;57.03;;;;;;;;;;5050942;28;20021;-72
2024/02/03 02:25:14;;;;;;;80.32;57.00;;;;;;;;;;5050358;28;20061;-72
2024/02/03 02:27:40;;;;;;;78.70;56.95;;;;;;;;;;5049864;28;20122;-72
2024/02/03 02:30:06;;;;;;;81.38;56.90;;;;;;;;;;5043066;28;20026;-73
2024/02/03 02:32:32;;;;;;;83.38;56.58;;;;;;;;;;5043308;28;20053;-72
2024/02/03 02:34:58;;;;;;;90.13;60.05;;;;;;;;;;5050279;28;20052;-72
2024/02/03 02:37:24;;;;;;;83.90;58.63;;;;;;;;;;5040029;28;20079;-73
2024/02/03 02:39:50;;;;;;;82.20;57.72;;;;;;;;;;5049600;28;20068;-73
2024/02/03 02:42:16;;;;;;;83.95;57.65;;;;;;;;;;5050990;28;20045;-73
2024/02/03 02:44:42;;;;;;;86.82;59.60;;;;;;;;;;5050702;28;20078;-72
2024/02/03 02:47:08;;;;;;;83.85;56.47;;;;;;;;;;5045385;28;20036;-72
2024/02/03 02:49:34;;;;;;;89.10;58.97;;;;;;;;;;5043652;28;20375;-72
2024/02/03 02:52:01;;;;;;;83.32;58.85;;;;;;;;;;5037515;28;20480;-72
2024/02/03 02:54:27;;;;;;;79.18;58.38;;;;;;;;;;5043405;28;20029;-72
2024/02/03 02:56:53;;;;;;;84.88;57.88;;;;;;;;;;5051200;28;20009;-72
2024/02/03 02:59:19;;;;;;;85.13;58.33;;;;;;;;;;5050879;28;20040;-72
2024/02/03 03:01:45;;;;;;;80.55;57.95;;;;;;;;;;5048573;28;20083;-72
2024/02/03 03:04:11;;;;;;;85.53;57.38;;;;;;;;;;5041941;28;20025;-73
2024/02/03 03:06:37;;;;;;;77.95;57.35;;;;;;;;;;5051059;28;20087;-72
2024/02/03 03:09:03;;;;;;;83.85;57.88;;;;;;;;;;5050876;28;20033;-73
2024/02/03 03:11:29;;;;;;;81.50;56.60;;;;;;;;;;5051025;28;20522;-72
2024/02/03 03:13:56;;;;;;;89.35;61.60;;;;;;;;;;5050840;28;20033;-72
2024/02/03 03:16:24;;;;;;;89.38;60.42;;;;;;;;;;5051151;28;20470;-72
2024/02/03 03:18:50;;;;;;;86.53;60.60;;;;;;;;;;5044308;28;20032;-72
2024/02/03 03:21:16;;;;;;;87.55;58.72;;;;;;;;;;5052189;28;20025;-72
2024/02/03 03:23:42;;;;;;;80.28;58.17;;;;;;;;;;5054784;28;20119;-72
2024/02/03 03:26:08;;;;;;;80.47;58.63;;;;;;;;;;5054853;28;20496;-72
2024/02/03 03:28:34;;;;;;;84.20;58.45;;;;;;;;;;5054439;28;20108;-72
2024/02/03 03:31:00;;;;;;;86.50;59.00;;;;;;;;;;5051755;28;20052;-72
2024/02/03 03:33:26;;;;;;;81.05;58.38;;;;;;;;;;5044084;28;20040;-72
2024/02/03 03:35:52;;;;;;;84.40;58.72;;;;;;;;;;5054991;28;20024;-72
2024/02/03 03:38:18;;;;;;;83.82;57.45;;;;;;;;;;5045951;28;20560;-72
2024/02/03 03:40:44;;;;;;;88.28;59.28;;;;;;;;;;5047725;28;20024;-72
2024/02/03 03:43:10;;;;;;;84.13;58.92;;;;;;;;;;5040675;28;20021;-72
2024/02/03 03:45:36;;;;;;;86.00;59.53;;;;;;;;;;5054817;28;20595;-72
2024/02/03 03:48:02;;;;;;;84.22;56.88;;;;;;;;;;5054295;28;20087;-73
2024/02/03 03:50:28;;;;;;;88.70;57.90;;;;;;;;;;5054229;28;20033;-73
2024/02/03 03:52:54;;;;;;;84.88;58.35;;;;;;;;;;5054153;28;20036;-73
2024/02/03 03:55:20;;;;;;;84.93;59.83;;;;;;;;;;5054162;28;20478;-74
2024/02/03 03:57:46;;;;;;;89.15;60.45;;;;;;;;;;5053901;28;20061;-73
2024/02/03 04:00:13;;;;;;;81.78;55.95;;;;;;;;;;5054174;28;20062;-73
2024/02/03 04:02:39;;;;;;;85.22;59.10;;;;;;;;;;5036299;28;20167;-73
2024/02/03 04:05:08;;;;;;;87.78;59.28;;;;;;;;;;5053851;28;20064;-73
2024/02/03 04:07:34;;;;;;;81.53;57.97;;;;;;;;;;5053983;28;20036;-73
2024/02/03 04:10:00;;;;;;;81.75;58.15;;;;;;;;;;5053975;28;20167;-73
2024/02/03 04:12:26;;;;;;;84.10;58.65;;;;;;;;;;5052534;28;20013;-73
2024/02/03 04:14:52;;;;;;;84.63;56.38;;;;;;;;;;5053834;28;20071;-73
2024/02/03 04:17:18;;;;;;;85.07;58.10;;;;;;;;;;5053917;28;20094;-73
2024/02/03 04:19:44;;;;;;;80.47;55.08;;;;;;;;;;5053710;28;20032;-73
2024/02/03 04:22:13;;;;;;;77.63;54.25;;;;;;;;;;5053774;28;20025;-73
2024/02/03 04:24:39;;;;;;;83.55;57.00;;;;;;;;;;5053914;28;20101;-73
2024/02/03 04:27:06;;;;;;;83.53;55.22;;;;;;;;;;5053544;28;20021;-74
2024/02/03 04:29:32;;;;;;;77.13;52.58;;;;;;;;;;5053389;28;20021;-74
2024/02/03 04:31:58;;;;;;;82.07;55.10;;;;;;;;;;5053778;28;20409;-74
2024/02/03 04:34:24;;;;;;;78.85;56.97;;;;;;;;;;5049975;28;20030;-74
2024/02/03 04:36:50;;;;;;;81.35;54.92;;;;;;;;;;5058006;28;20025;-73
2024/02/03 04:39:16;;;;;;;82.10;55.28;;;;;;;;;;5052021;28;20063;-73
2024/02/03 04:41:42;;;;;;;79.15;54.28;;;;;;;;;;5051955;28;20415;-73
2024/02/03 04:44:08;;;;;;;79.90;55.67;;;;;;;;;;5053772;28;20032;-73
2024/02/03 04:46:34;;;;;;;75.63;52.83;;;;;;;;;;5049297;28;20383;-73
2024/02/03 04:49:00;;;;;;;79.80;53.30;;;;;;;;;;5047353;28;20033;-74
2024/02/03 04:51:26;;;;;;;79.70;52.72;;;;;;;;;;5049545;28;20040;-73
2024/02/03 04:53:52;;;;;;;77.13;53.70;;;;;;;;;;5046873;28;20031;-72
2024/02/03 04:56:18;;;;;;;79.85;52.40;;;;;;;;;;5047640;28;20029;-72
2024/02/03 04:58:44;;;;;;;77.57;51.75;;;;;;;;;;5050563;28;20071;-73
2024/02/03 05:01:10;;;;;;;75.45;52.63;;;;;;;;;;5049753;28;20028;-73
2024/02/03 05:03:37;;;;;;;84.50;55.70;;;;;;;;;;5051984;28;20036;-73
2024/02/03 05:06:03;;;;;;;80.80;53.65;;;;;;;;;;5052256;28;20025;-73
2024/02/03 05:08:29;;;;;;;77.85;51.63;;;;;;;;;;5053057;28;20024;-74
2024/02/03 05:10:56;;;;;;;82.35;53.80;;;;;;;;;;5052701;28;20094;-73
2024/02/03 05:13:22;;;;;;;76.53;51.08;;;;;;;;;;5052525;28;20454;-73
2024/02/03 05:15:48;;;;;;;73.90;52.45;;;;;;;;;;5051370;28;20203;-73
2024/02/03 05:18:14;;;;;;;78.38;51.63;;;;;;;;;;5051146;28;20104;-74
2024/02/03 05:20:40;;;;;;;76.60;51.75;;;;;;;;;;5052717;28;20032;-73
2024/02/03 05:23:06;;;;;;;79.20;53.30;;;;;;;;;;5052617;28;20025;-73
2024/02/03 05:25:32;;;;;;;80.80;52.17;;;;;;;;;;5052763;28;20115;-73
2024/02/03 05:27:58;;;;;;;77.53;50.97;;;;;;;;;;5052514;28;20116;-73
2024/02/03 05:30:24;;;;;;;68.20;49.55;;;;;;;;;;5052771;28;20025;-73
2024/02/03 05:32:50;;;;;;;79.10;51.72;;;;;;;;;;5052492;28;20037;-73
2024/02/03 05:35:16;;;;;;;74.20;51.13;;;;;;;;;;5052325;28;20489;-73
2024/02/03 05:37:42;;;;;;;74.55;51.28;;;;;;;;;;5042769;28;20029;-73
2024/02/03 05:40:08;;;;;;;72.20;49.38;;;;;;;;;;5047724;28;20120;-73
2024/02/03 05:42:34;;;;;;;70.80;49.25;;;;;;;;;;5045609;28;20029;-73
2024/02/03 05:45:00;;;;;;;77.20;51.92;;;;;;;;;;5051444;28;20040;-73
2024/02/03 05:47:26;;;;;;;70.68;48.75;;;;;;;;;;5052339;28;20024;-73
2024/02/03 05:49:53;;;;;;;75.43;50.85;;;;;;;;;;5052378;28;20101;-72
2024/02/03 05:52:19;;;;;;;71.53;49.80;;;;;;;;;;5051766;28;20528;-72
2024/02/03 05:54:45;;;;;;;77.10;49.25;;;;;;;;;;5052457;28;20051;-72
2024/02/03 05:57:14;;;;;;;72.53;50.50;;;;;;;;;;5051969;28;20486;-73
2024/02/03 05:59:44;;;;;;;71.80;51.25;;;;;;;;;;5042540;28;20067;-73
2024/02/03 06:02:10;;;;;;;68.28;48.00;;;;;;;;;;5051672;28;20467;-73
2024/02/03 06:04:36;;;;;;;72.80;51.00;;;;;;;;;;5045254;28;20442;-75
2024/02/03 06:07:03;;;;;;;72.30;49.10;;;;;;;;;;5046227;28;20107;-74
2024/02/03 06:09:29;;;;;;;73.60;51.28;;;;;;;;;;5045603;28;20034;-76
2024/02/03 06:11:55;;;;;;;73.57;49.10;;;;;;;;;;5050257;28;20021;-73
2024/02/03 06:14:20;;;;;;;76.97;51.47;;;;;;;;;;5051791;28;20021;-74
2024/02/03 06:16:47;;;;;;;74.72;49.25;;;;;;;;;;5051712;28;20066;-73
2024/02/03 06:19:13;;;;;;;76.00;52.30;;;;;;;;;;5051561;28;20091;-74
2024/02/03 06:21:39;;;;;;;67.95;49.58;;;;;;;;;;5051463;28;20021;-73
2024/02/03 06:24:05;;;;;;;74.75;50.45;;;;;;;;;;5050369;28;20025;-74
2024/02/03 06:26:31;;;;;;;73.55;49.85;;;;;;;;;;5051845;28;20028;-74
2024/02/03 06:28:58;;;;;;;76.70;52.22;;;;;;;;;;5051779;28;20109;-73
2024/02/03 06:31:24;;;;;;;75.22;51.00;;;;;;;;;;5049700;28;20501;-73
2024/02/03 06:33:50;;;;;;;76.28;52.80;;;;;;;;;;5051634;28;20074;-74
2024/02/03 06:36:16;;;;;;;77.90;51.22;;;;;;;;;;5051763;28;20104;-74
2024/02/03 06:38:42;;;;;;;77.38;52.60;;;;;;;;;;5051556;28;20052;-74
2024/02/03 06:41:10;;;;;;;78.80;52.20;;;;;;;;;;5051342;28;20032;-73
2024/02/03 06:43:40;;;;;;;75.70;51.72;;;;;;;;;;5051073;28;20013;-73
2024/02/03 06:46:06;;;;;;;74.05;50.97;;;;;;;;;;5051412;28;20028;-73
2024/02/03 06:48:32;;;;;;;70.30;49.92;;;;;;;;;;5051296;28;20059;-73
2024/02/03 06:50:58;;;;;;;78.55;51.50;;;;;;;;;;5049745;28;20033;-72
2024/02/03 06:53:24;;;;;;;67.60;49.70;;;;;;;;;;5051311;28;20039;-73
2024/02/03 06:55:50;;;;;;;79.15;53.25;;;;;;;;;;5052576;28;20055;-73
2024/02/03 06:58:16;;;;;;;78.53;54.17;;;;;;;;;;5052274;28;20116;-73
2024/02/03 07:00:42;;;;;;;80.72;54.60;;;;;;;;;;5054936;28;20112;-73
2024/02/03 07:03:08;;;;;;;79.68;54.33;;;;;;;;;;5055244;28;20029;-73
2024/02/03 07:08:38;;;;;;;80.10;53.95;;;;;;;;;;5041800;28;20482;-73
2024/02/03 07:11:04;;;;;;;86.18;56.88;;;;;;;;;;5051535;28;20065;-74
2024/02/03 07:13:30;;;;;;;79.22;53.92;;;;;;;;;;5055139;28;20052;-73
2024/02/03 07:15:56;;;;;;;81.22;53.70;;;;;;;;;;5041752;28;20048;-73
2024/02/03 07:18:23;;;;;;;81.63;55.43;;;;;;;;;;5044666;28;20115;-73
2024/02/03 07:20:49;;;;;;;77.32;54.55;;;;;;;;;;5034414;28;20112;-71
2024/02/03 07:23:15;;;;;;;81.05;56.25;;;;;;;;;;5043130;28;20135;-74
2024/02/03 07:25:41;;;;;;;77.93;54.55;;;;;;;;;;5051711;28;20021;-75
2024/02/03 07:28:07;;;;;;;78.78;54.40;;;;;;;;;;5053603;28;20017;-74
2024/02/03 07:30:34;;;;;;;80.55;56.35;;;;;;;;;;5054947;28;20195;-75
2024/02/03 07:33:01;;;;;;;79.43;58.00;;;;;;;;;;5051257;28;20044;-74
2024/02/03 07:35:29;;;;;;;84.10;56.70;;;;;;;;;;5042377;28;20353;-74
2024/02/03 07:41:15;;;;;;;85.10;58.95;;;;;;;;;;5051711;28;20051;-75
2024/02/03 07:43:41;;;;;;;85.85;58.33;;;;;;;;;;5047322;28;20025;-75
2024/02/03 07:46:07;;;;;;;79.68;57.95;;;;;;;;;;5054801;28;20108;-74
2024/02/03 07:48:33;;;;;;;85.43;58.95;;;;;;;;;;5043806;28;20057;-74
2024/02/03 07:50:59;;;;;;;78.20;57.70;;;;;;;;;;5050796;28;20063;-74
2024/02/03 07:53:25;;;;;;;79.80;57.30;;;;;;;;;;5045616;28;20028;-74
2024/02/03 07:55:51;;;;;;;80.95;57.63;;;;;;;;;;5049419;28;20098;-74
2024/02/03 07:58:18;;;;;;;84.53;56.22;;;;;;;;;;5054238;28;20025;-65
2024/02/03 08:00:44;;;;;;;83.80;57.53;;;;;;;;;;5048705;28;20029;-67
2024/02/03 08:03:10;;;;;;;88.22;59.78;;;;;;;;;;5049752;28;20072;-68
2024/02/03 08:05:36;;;;;;;82.18;58.80;;;;;;;;;;5053900;28;20482;-68
2024/02/03 08:08:02;;;;;;;90.93;61.03;;;;;;;;;;5045328;28;20044;-68
2024/02/03 08:10:28;;;;;;;87.75;61.58;;;;;;;;;;5052679;28;20084;-66
2024/02/03 08:12:54;;;;;;;83.93;59.38;;;;;;;;;;5049336;28;20443;-67
2024/02/03 08:15:38;;;;;;;81.00;58.75;;;;;;;;;;5045738;28;20025;-66
2024/02/03 08:18:04;;;;;;;87.15;61.92;;;;;;;;;;5043229;28;20067;-67
2024/02/03 08:20:31;;;;;;;86.57;61.15;;;;;;;;;;5042873;28;20042;-66
2024/02/03 08:22:57;;;;;;;86.53;60.65;;;;;;;;;;5054066;28;20032;-66
2024/02/03 08:25:23;;;;;;;87.22;60.28;;;;;;;;;;5053799;28;20029;-67
2024/02/03 08:27:49;;;;;;;85.97;60.90;;;;;;;;;;5043365;28;20057;-67
2024/02/03 08:30:15;;;;;;;87.18;61.60;;;;;;;;;;5051136;28;20029;-66
2024/02/03 08:32:41;;;;;;;87.63;63.08;;;;;;;;;;5044423;28;20029;-67
2024/02/03 08:35:08;;;;;;;83.55;60.97;;;;;;;;;;5047504;28;20455;-66
2024/02/03 08:37:34;;;;;;;88.18;60.40;;;;;;;;;;5051370;28;20125;-66
2024/02/03 08:40:00;;;;;;;87.57;61.75;;;;;;;;;;5039696;28;20530;-67
2024/02/03 08:42:25;;;;;;;87.88;62.30;;;;;;;;;;5053106;28;20020;-67
2024/02/03 08:44:51;;;;;;;89.30;62.67;;;;;;;;;;5053918;28;20033;-66
2024/02/03 08:47:18;;;;;;;88.10;60.85;;;;;;;;;;5053030;28;20021;-69
2024/02/03 08:49:50;;;;;;;90.85;62.92;;;;;;;;;;5039533;28;20162;-68
2024/02/03 08:52:16;;;;;;;92.82;62.58;;;;;;;;;;5053411;28;20017;-68
2024/02/03 08:54:42;;;;;;;93.20;63.20;;;;;;;;;;5051961;28;20032;-69
2024/02/03 08:57:08;;;;;;;90.32;62.95;;;;;;;;;;5053570;28;20036;-69
2024/02/03 08:59:34;;;;;;;95.55;63.15;;;;;;;;;;5053442;28;20044;-69
2024/02/03 09:02:00;;;;;;;90.93;64.75;;;;;;;;;;5053449;28;20368;-69
2024/02/03 09:04:27;;;;;;;90.07;63.67;;;;;;;;;;5052002;28;20140;-69
2024/02/03 09:06:53;;;;;;;93.78;64.45;;;;;;;;;;5053384;28;20071;-68
2024/02/03 09:09:19;;;;;;;88.85;64.60;;;;;;;;;;5053353;28;20033;-66
2024/02/03 09:11:45;;;;;;;88.53;65.25;;;;;;;;;;5053280;28;20505;-68
2024/02/03 09:14:11;;;;;;;89.70;64.32;;;;;;;;;;5053116;28;20032;-68
2024/02/03 09:16:37;;;;;;;90.45;65.18;;;;;;;;;;5052828;28;20024;-68
2024/02/03 09:19:03;;;;;;;87.50;65.13;;;;;;;;;;5043519;28;20033;-68
2024/02/03 09:21:29;;;;;;;90.25;63.90;;;;;;;;;;5052731;28;20356;-68
2024/02/03 09:23:55;;;;;;;93.78;65.68;;;;;;;;;;5050582;28;20067;-69
2024/02/03 09:26:21;;;;;;;92.28;63.80;;;;;;;;;;5052219;28;20171;-66
2024/02/03 09:28:47;;;;;;;90.90;64.80;;;;;;;;;;5047788;28;20078;-64
2024/02/03 09:31:20;;;;;;;89.60;63.38;;;;;;;;;;5052914;28;20045;-67
2024/02/03 09:33:46;;;;;;;88.85;66.80;;;;;;;;;;5052485;28;20033;-67
2024/02/03 09:36:12;;;;;;;90.60;66.05;;;;;;;;;;5048739;28;20025;-67
2024/02/03 09:38:38;;;;;;;92.00;66.15;;;;;;;;;;5044030;28;20114;-67
2024/02/03 09:41:05;;;;;;;97.78;68.40;;;;;;;;;;5045492;28;20054;-67
2024/02/03 09:43:31;;;;;;;96.20;67.10;;;;;;;;;;5048655;28;20169;-68
2024/02/03 09:45:58;;;;;;;94.93;67.35;;;;;;;;;;5047365;28;20057;-67
2024/02/03 09:48:24;;;;;;;95.40;66.47;;;;;;;;;;5049900;28;20031;-68
2024/02/03 09:50:50;;;;;;;94.07;67.13;;;;;;;;;;5048219;28;20024;-67
2024/02/03 09:53:16;;;;;;;92.40;66.50;;;;;;;;;;5049430;28;20480;-67
2024/02/03 09:55:43;;;;;;;97.88;67.03;;;;;;;;;;5048294;28;20044;-67
2024/02/03 09:58:09;;;;;;;95.60;66.13;;;;;;;;;;5049689;28;20098;-67
2024/02/03 10:00:36;;;;;;;90.07;64.72;;;;;;;;;;5051421;28;20037;-67
2024/02/03 10:03:02;;;;;;;94.25;66.90;;;;;;;;;;5051953;28;20039;-67
2024/02/03 10:05:29;;;;;;;91.32;64.68;;;;;;;;;;5051578;28;20037;-68
2024/02/03 10:08:05;;;;;;;87.30;64.78;;;;;;;;;;5050644;28;20025;-67
2024/02/03 10:10:35;;;;;;;89.38;63.70;;;;;;;;;;5051677;28;20044;-67
2024/02/03 10:13:04;;;;;;;83.47;62.75;;;;;;;;;;5043551;28;20031;-67
2024/02/03 10:15:31;;;;;;;83.20;62.17;;;;;;;;;;5051500;28;20068;-67
2024/02/03 10:17:59;;;;;;;85.82;61.65;;;;;;;;;;5040480;28;20036;-66
2024/02/03 10:20:28;;;;;;;82.68;61.72;;;;;;;;;;5049492;28;20045;-67
2024/02/03 10:22:55;;;;;;;86.35;61.38;;;;;;;;;;5049971;28;20017;-67
2024/02/03 10:25:29;;;;;;;85.55;61.20;;;;;;;;;;5049057;28;20029;-67
2024/02/03 10:28:04;;;;;;;84.55;61.42;;;;;;;;;;5043426;28;20033;-67
2024/02/03 10:30:31;;;;;;;82.80;62.20;;;;;;;;;;5051216;28;20013;-67
2024/02/03 10:33:01;;;;;;;88.97;60.80;;;;;;;;;;5051611;28;20104;-67
2024/02/03 10:41:36;;;;;;;78.75;58.80;;;;;;;;;;5035444;28;20425;-66
2024/02/03 10:44:05;;;;;;;78.78;59.45;;;;;;;;;;5049866;28;20036;-66
2024/02/03 10:46:31;;;;;;;86.25;63.05;;;;;;;;;;5051774;28;20021;-66
2024/02/03 10:48:58;;;;;;;76.68;58.38;;;;;;;;;;5051275;28;20455;-67
2024/02/03 10:51:28;;;;;;;80.65;57.83;;;;;;;;;;5051622;28;20032;-67
2024/02/03 10:54:06;;;;;;;79.60;57.05;;;;;;;;;;5049775;28;20021;-67
2024/02/03 10:56:33;;;;;;;82.93;56.28;;;;;;;;;;5056328;28;20443;-67
2024/02/03 10:58:59;;;;;;;79.40;57.97;;;;;;;;;;5051232;28;20032;-67
2024/02/03 11:01:33;;;;;;;73.10;56.88;;;;;;;;;;5051246;28;20104;-67
2024/02/03 11:04:01;;;;;;;73.32;51.65;;;;;;;;;;5051431;28;20024;-67
2024/02/03 11:06:49;;;;;;;76.50;53.78;;;;;;;;;;5035888;28;20105;-67
2024/02/03 11:09:18;;;;;;;74.50;54.85;;;;;;;;;;5050984;28;20459;-67
2024/02/03 11:11:45;;;;;;;73.40;56.15;;;;;;;;;;5051181;28;20037;-66
2024/02/03 11:14:12;;;;;;;72.82;54.13;;;;;;;;;;5051238;28;20032;-66
2024/02/03 11:16:39;;;;;;;73.93;56.05;;;;;;;;;;5039308;28;20043;-66
2024/02/03 11:19:08;;;;;;;74.60;55.90;;;;;;;;;;5049592;28;20045;-68
2024/02/03 11:21:40;;;;;;;72.93;53.58;;;;;;;;;;5043996;28;20025;-67
2024/02/03 11:24:06;;;;;;;70.57;51.88;;;;;;;;;;5050142;28;20459;-67
2024/02/03 11:26:32;;;;;;;71.72;50.42;;;;;;;;;;5051249;28;20067;-67
2024/02/03 11:28:58;;;;;;;69.68;51.95;;;;;;;;;;5050975;28;20071;-67
2024/02/03 11:31:26;;;;;;;57.63;45.17;;;;;;;;;;5051344;28;20471;-67
2024/02/03 11:33:52;;;;;;;64.28;45.65;;;;;;;;;;5050207;28;20115;-67
2024/02/03 11:36:18;;;;;;;51.55;40.17;;;;;;;;;;5043909;28;20147;-62
2024/02/03 11:38:45;;;;;;;48.45;36.92;;;;;;;;;;5049539;28;20562;-54
2024/02/03 11:41:11;;;;;;;49.90;37.38;;;;;;;;;;5051117;28;20481;-65
2024/02/03 11:43:38;;;;;;;47.53;33.78;;;;;;;;;;5050842;28;20021;-66
2024/02/03 11:46:09;;;;;;;45.05;33.80;;;;;;;;;;5043371;28;20040;-66
2024/02/03 11:48:38;;;;;;;47.47;34.13;;;;;;;;;;5042501;28;20032;-66
2024/02/03 11:51:05;;;;;;;48.95;35.05;;;;;;;;;;5052081;28;20083;-66
2024/02/03 11:53:32;;;;;;;44.20;32.72;;;;;;;;;;5048681;28;20029;-66
2024/02/03 11:55:58;;;;;;;45.75;31.75;;;;;;;;;;5054720;28;20060;-66
2024/02/03 11:58:24;;;;;;;39.88;27.77;;;;;;;;;;5054803;28;20037;-66
2024/02/03 12:01:09;;;;;;;44.35;30.58;;;;;;;;;;5054635;28;20037;-66
2024/02/03 12:03:38;;;;;;;37.03;27.70;;;;;;;;;;5054677;28;20029;-67
2024/02/03 12:06:05;;;;;;;41.72;30.00;;;;;;;;;;5054305;28;20013;-66
2024/02/03 12:08:31;;;;;;;45.55;30.52;;;;;;;;;;5054728;28;20425;-66
2024/02/03 12:10:57;;;;;;;38.53;28.98;;;;;;;;;;5053531;28;20103;-66
2024/02/03 12:13:23;;;;;;;44.30;31.13;;;;;;;;;;5054140;28;20025;-66
2024/02/03 12:15:51;;;;;;;44.63;30.70;;;;;;;;;;5054480;28;20091;-66
2024/02/03 12:18:18;;;;;;;44.17;31.30;;;;;;;;;;5054147;28;20033;-66
2024/02/03 12:20:44;;;;;;;41.67;31.67;;;;;;;;;;5046596;28;20051;-67
2024/02/03 12:23:10;;;;;;;44.50;32.75;;;;;;;;;;5053858;28;20017;-67
2024/02/03 12:25:36;;;;;;;42.40;31.35;;;;;;;;;;5054349;28;20141;-67
2024/02/03 12:28:02;;;;;;;41.75;30.20;;;;;;;;;;5054035;28;20025;-67
2024/02/03 12:30:35;;;;;;;38.95;29.92;;;;;;;;;;5052650;28;20399;-67
2024/02/03 12:33:02;;;;;;;40.08;28.48;;;;;;;;;;5048721;28;20360;-67
2024/02/03 12:35:29;;;;;;;39.10;28.42;;;;;;;;;;5054014;28;20029;-67
2024/02/03 12:37:55;;;;;;;36.00;28.17;;;;;;;;;;5052378;28;20332;-66
2024/02/03 12:40:21;;;;;;;36.30;28.27;;;;;;;;;;5039487;28;20040;-65
2024/02/03 12:42:47;;;;;;;39.13;27.60;;;;;;;;;;5052225;28;20017;-65
2024/02/03 12:45:13;;;;;;;37.28;26.35;;;;;;;;;;5053571;28;20021;-67
2024/02/03 12:47:44;;;;;;;36.63;29.38;;;;;;;;;;5052337;28;20312;-66
2024/02/03 12:50:10;;;;;;;44.13;29.67;;;;;;;;;;5053509;28;20479;-66
2024/02/03 12:52:36;;;;;;;34.92;27.48;;;;;;;;;;5053344;28;20025;-67
2024/02/03 12:55:02;;;;;;;37.20;29.48;;;;;;;;;;5052988;28;20021;-66
2024/02/03 12:57:28;;;;;;;38.85;29.40;;;;;;;;;;5053534;28;20033;-66
2024/02/03 12:59:54;;;;;;;38.60;29.45;;;;;;;;;;5053126;28;20033;-66
2024/02/03 13:02:20;;;;;;;38.63;29.25;;;;;;;;;;5052771;28;20467;-66
2024/02/03 13:04:46;;;;;;;38.05;28.80;;;;;;;;;;5053241;28;20017;-66
2024/02/03 13:07:15;;;;;;;36.65;28.40;;;;;;;;;;5053256;28;20451;-66
2024/02/03 13:09:44;;;;;;;35.58;26.35;;;;;;;;;;5053040;28;20037;-66
2024/02/03 13:12:11;;;;;;;36.08;27.65;;;;;;;;;;5053304;28;20024;-67
2024/02/03 13:14:37;;;;;;;34.85;26.23;;;;;;;;;;5039172;28;20036;-67
2024/02/03 13:17:03;;;;;;;35.53;26.83;;;;;;;;;;5044054;28;20022;-68
2024/02/03 13:19:29;;;;;;;33.92;24.50;;;;;;;;;;5048443;28;20051;-66
2024/02/03 13:21:56;;;;;;;28.55;22.75;;;;;;;;;;5051395;28;20075;-66
2024/02/03 13:24:25;;;;;;;32.85;24.08;;;;;;;;;;5046433;28;20486;-66
2024/02/03 13:26:51;;;;;;;30.58;22.42;;;;;;;;;;5053116;28;20023;-66
2024/02/03 13:29:17;;;;;;;27.85;21.45;;;;;;;;;;5052697;28;20104;-67
2024/02/03 13:31:43;;;;;;;26.30;21.75;;;;;;;;;;5052674;28;20044;-66
2024/02/03 13:34:09;;;;;;;28.20;22.17;;;;;;;;;;5043233;28;20033;-67
2024/02/03 13:36:35;;;;;;;27.13;21.83;;;;;;;;;;5052792;28;20017;-67
2024/02/03 13:39:02;;;;;;;27.60;20.98;;;;;;;;;;5052458;28;20102;-67
2024/02/03 13:41:28;;;;;;;26.00;21.10;;;;;;;;;;5052498;28;20021;-67
2024/02/03 13:43:54;;;;;;;26.80;20.38;;;;;;;;;;5052836;28;20120;-67
2024/02/03 13:46:20;;;;;;;28.58;21.50;;;;;;;;;;5051213;28;20017;-66
2024/02/03 13:48:46;;;;;;;25.35;19.65;;;;;;;;;;5051955;28;20040;-66
2024/02/03 13:57:19;;;;;;;25.25;20.20;;;;;;;;;;5047399;28;20063;-66
2024/02/03 13:59:45;;;;;;;21.75;18.77;;;;;;;;;;5051803;28;20459;-67
2024/02/03 14:02:11;;;;;;;25.35;19.38;;;;;;;;;;5051945;28;20021;-66
2024/02/03 14:04:38;;;;;;;25.25;20.75;;;;;;;;;;5047627;28;20479;-67
2024/02/03 14:07:04;;;;;;;24.35;19.58;;;;;;;;;;5051069;28;20029;-67
2024/02/03 14:09:30;;;;;;;25.65;19.70;;;;;;;;;;5037854;28;20383;-66
2024/02/03 14:11:56;;;;;;;25.05;19.30;;;;;;;;;;5044199;28;20135;-67
2024/02/03 14:14:22;;;;;;;25.58;19.27;;;;;;;;;;5046350;28;20431;-67
2024/02/03 14:16:49;;;;;;;22.33;18.70;;;;;;;;;;5050683;28;20033;-67
2024/02/03 14:19:15;;;;;;;22.55;18.50;;;;;;;;;;5051880;28;20359;-67
2024/02/03 14:21:41;;;;;;;23.67;19.02;;;;;;;;;;5049151;28;20339;-67
2024/02/03 14:24:08;;;;;;;24.63;18.42;;;;;;;;;;5046946;28;20408;-67
2024/02/03 14:26:35;;;;;;;21.52;18.83;;;;;;;;;;5047529;28;20029;-68
2024/02/03 14:29:01;;;;;;;22.50;18.63;;;;;;;;;;5043642;28;20127;-67
2024/02/03 14:31:27;;;;;;;24.20;19.40;;;;;;;;;;5037606;28;20025;-67